sensor_id;sensor_type;location;lat;lon;timestamp;P1;durP1;ratioP1;P2;durP2;ratioP2
80136;SDS011;69466;55.948;37.484;2024-02-04T00:01:56;22.83;;;9.02;;
80136;SDS011;69466;55.948;37.484;2024-02-04T00:04:22;20.85;;;8.68;;
80136;SDS011;69466;55.948;37.484;2024-02-04T00:06:52;20.67;;;9.02;;
80136;SDS011;69466;55.948;37.484;2024-02-04T00:09:19;18.88;;;8.80;;
80136;SDS011;69466;55.948;37.484;2024-02-04T00:11:45;15.93;;;8.15;;
80136;SDS011;69466;55.948;37.484;2024-02-04T00:14:11;17.98;;;8.95;;
80136;SDS011;69466;55.948;37.484;2024-02-04T00:16:37;19.02;;;8.65;;
80136;SDS011;69466;55.948;37.484;2024-02-04T00:19:03;19.33;;;9.25;;
80136;SDS011;69466;55.948;37.484;2024-02-04T00:21:30;15.88;;;8.57;;
80136;SDS011;69466;55.948;37.484;2024-02-04T00:23:56;18.20;;;8.75;;
80136;SDS011;69466;55.948;37.484;2024-02-04T00:26:23;16.27;;;7.45;;
80136;SDS011;69466;55.948;37.484;2024-02-04T00:28:50;15.35;;;7.80;;
80136;SDS011;69466;55.948;37.484;2024-02-04T00:31:16;16.77;;;7.82;;
80136;SDS011;69466;55.948;37.484;2024-02-04T00:33:42;16.17;;;7.40;;
80136;SDS011;69466;55.948;37.484;2024-02-04T00:36:09;15.40;;;7.85;;
80136;SDS011;69466;55.948;37.484;2024-02-04T00:38:36;15.35;;;7.15;;
80136;SDS011;69466;55.948;37.484;2024-02-04T00:41:02;13.10;;;7.00;;
80136;SDS011;69466;55.948;37.484;2024-02-04T00:43:29;11.95;;;6.78;;
80136;SDS011;69466;55.948;37.484;2024-02-04T00:45:55;13.50;;;6.18;;
80136;SDS011;69466;55.948;37.484;2024-02-04T00:48:22;11.23;;;6.35;;
80136;SDS011;69466;55.948;37.484;2024-02-04T00:50:48;13.07;;;7.15;;
80136;SDS011;69466;55.948;37.484;2024-02-04T00:53:16;12.57;;;6.20;;
80136;SDS011;69466;55.948;37.484;2024-02-04T00:55:41;12.65;;;6.53;;
80136;SDS011;69466;55.948;37.484;2024-02-04T00:58:07;12.57;;;5.90;;
80136;SDS011;69466;55.948;37.484;2024-02-04T01:00:33;13.20;;;6.63;;
80136;SDS011;69466;55.948;37.484;2024-02-04T01:02:59;11.10;;;5.90;;
80136;SDS011;69466;55.948;37.484;2024-02-04T01:05:25;10.90;;;5.43;;
80136;SDS011;69466;55.948;37.484;2024-02-04T01:07:51;10.63;;;5.85;;
80136;SDS011;69466;55.948;37.484;2024-02-04T01:10:19;11.73;;;5.85;;
80136;SDS011;69466;55.948;37.484;2024-02-04T01:12:46;13.07;;;5.90;;
80136;SDS011;69466;55.948;37.484;2024-02-04T01:15:13;12.00;;;5.15;;
80136;SDS011;69466;55.948;37.484;2024-02-04T01:17:42;13.82;;;7.80;;
80136;SDS011;69466;55.948;37.484;2024-02-04T01:20:09;12.50;;;6.13;;
80136;SDS011;69466;55.948;37.484;2024-02-04T01:22:37;13.00;;;6.55;;
80136;SDS011;69466;55.948;37.484;2024-02-04T01:25:03;14.43;;;6.13;;
80136;SDS011;69466;55.948;37.484;2024-02-04T01:27:30;10.95;;;5.88;;
80136;SDS011;69466;55.948;37.484;2024-02-04T01:29:56;12.88;;;6.03;;
80136;SDS011;69466;55.948;37.484;2024-02-04T01:32:22;13.02;;;5.63;;
80136;SDS011;69466;55.948;37.484;2024-02-04T01:34:48;13.50;;;6.45;;
80136;SDS011;69466;55.948;37.484;2024-02-04T01:37:14;13.98;;;6.88;;
80136;SDS011;69466;55.948;37.484;2024-02-04T01:39:40;12.98;;;6.28;;
80136;SDS011;69466;55.948;37.484;2024-02-04T01:42:06;15.77;;;6.45;;
80136;SDS011;69466;55.948;37.484;2024-02-04T01:44:32;11.75;;;5.97;;
80136;SDS011;69466;55.948;37.484;2024-02-04T01:46:58;14.07;;;6.60;;
80136;SDS011;69466;55.948;37.484;2024-02-04T01:49:24;11.73;;;5.85;;
80136;SDS011;69466;55.948;37.484;2024-02-04T01:51:51;11.43;;;5.95;;
80136;SDS011;69466;55.948;37.484;2024-02-04T01:54:18;13.55;;;6.20;;
80136;SDS011;69466;55.948;37.484;2024-02-04T01:56:49;10.50;;;5.53;;
80136;SDS011;69466;55.948;37.484;2024-02-04T01:59:15;12.20;;;6.20;;
80136;SDS011;69466;55.948;37.484;2024-02-04T02:01:43;12.63;;;6.57;;
80136;SDS011;69466;55.948;37.484;2024-02-04T02:04:09;17.02;;;7.28;;
80136;SDS011;69466;55.948;37.484;2024-02-04T02:06:35;13.95;;;6.22;;
80136;SDS011;69466;55.948;37.484;2024-02-04T02:09:08;11.38;;;5.70;;
80136;SDS011;69466;55.948;37.484;2024-02-04T02:11:43;10.93;;;5.93;;
80136;SDS011;69466;55.948;37.484;2024-02-04T02:14:16;10.35;;;5.80;;
80136;SDS011;69466;55.948;37.484;2024-02-04T02:16:55;10.63;;;4.30;;
80136;SDS011;69466;55.948;37.484;2024-02-04T02:19:43;14.05;;;5.75;;
80136;SDS011;69466;55.948;37.484;2024-02-04T02:22:34;9.52;;;4.70;;
80136;SDS011;69466;55.948;37.484;2024-02-04T02:25:09;9.50;;;4.47;;
80136;SDS011;69466;55.948;37.484;2024-02-04T02:27:45;7.80;;;4.55;;
80136;SDS011;69466;55.948;37.484;2024-02-04T02:30:12;7.25;;;4.05;;
80136;SDS011;69466;55.948;37.484;2024-02-04T02:32:40;8.68;;;4.85;;
80136;SDS011;69466;55.948;37.484;2024-02-04T02:35:07;9.90;;;4.13;;
80136;SDS011;69466;55.948;37.484;2024-02-04T02:40:45;8.38;;;4.43;;
80136;SDS011;69466;55.948;37.484;2024-02-04T02:43:17;7.55;;;3.58;;
80136;SDS011;69466;55.948;37.484;2024-02-04T02:45:44;8.38;;;4.00;;
80136;SDS011;69466;55.948;37.484;2024-02-04T02:48:11;10.07;;;5.57;;
80136;SDS011;69466;55.948;37.484;2024-02-04T02:50:37;12.02;;;4.68;;
80136;SDS011;69466;55.948;37.484;2024-02-04T02:53:05;12.25;;;4.95;;
80136;SDS011;69466;55.948;37.484;2024-02-04T02:55:31;12.90;;;5.68;;
80136;SDS011;69466;55.948;37.484;2024-02-04T02:57:57;14.32;;;5.28;;
80136;SDS011;69466;55.948;37.484;2024-02-04T03:00:23;11.82;;;5.78;;
80136;SDS011;69466;55.948;37.484;2024-02-04T03:02:49;9.75;;;5.10;;
80136;SDS011;69466;55.948;37.484;2024-02-04T03:05:15;9.35;;;5.10;;
80136;SDS011;69466;55.948;37.484;2024-02-04T03:07:42;11.25;;;5.65;;
80136;SDS011;69466;55.948;37.484;2024-02-04T03:10:10;11.40;;;5.22;;
80136;SDS011;69466;55.948;37.484;2024-02-04T03:12:36;8.73;;;3.92;;
80136;SDS011;69466;55.948;37.484;2024-02-04T03:15:02;8.25;;;4.90;;
80136;SDS011;69466;55.948;37.484;2024-02-04T03:17:31;10.70;;;5.13;;
80136;SDS011;69466;55.948;37.484;2024-02-04T03:19:57;9.55;;;4.60;;
80136;SDS011;69466;55.948;37.484;2024-02-04T03:22:23;7.38;;;3.90;;
80136;SDS011;69466;55.948;37.484;2024-02-04T03:24:49;9.18;;;4.22;;
80136;SDS011;69466;55.948;37.484;2024-02-04T03:27:17;9.40;;;4.20;;
80136;SDS011;69466;55.948;37.484;2024-02-04T03:29:45;10.02;;;3.92;;
80136;SDS011;69466;55.948;37.484;2024-02-04T03:32:11;8.18;;;3.78;;
80136;SDS011;69466;55.948;37.484;2024-02-04T03:34:37;7.13;;;4.03;;
80136;SDS011;69466;55.948;37.484;2024-02-04T03:37:05;8.30;;;3.55;;
80136;SDS011;69466;55.948;37.484;2024-02-04T03:39:34;6.93;;;3.03;;
80136;SDS011;69466;55.948;37.484;2024-02-04T03:42:00;6.20;;;3.33;;
80136;SDS011;69466;55.948;37.484;2024-02-04T03:44:26;6.63;;;3.28;;
80136;SDS011;69466;55.948;37.484;2024-02-04T03:46:52;7.75;;;3.13;;
80136;SDS011;69466;55.948;37.484;2024-02-04T03:49:18;5.97;;;2.88;;
80136;SDS011;69466;55.948;37.484;2024-02-04T03:51:44;8.27;;;4.13;;
80136;SDS011;69466;55.948;37.484;2024-02-04T03:54:11;8.00;;;3.50;;
80136;SDS011;69466;55.948;37.484;2024-02-04T03:56:38;7.28;;;2.88;;
80136;SDS011;69466;55.948;37.484;2024-02-04T03:59:04;6.72;;;2.75;;
80136;SDS011;69466;55.948;37.484;2024-02-04T04:01:32;5.20;;;2.60;;
80136;SDS011;69466;55.948;37.484;2024-02-04T04:03:58;5.50;;;2.53;;
80136;SDS011;69466;55.948;37.484;2024-02-04T04:06:24;5.65;;;2.60;;
80136;SDS011;69466;55.948;37.484;2024-02-04T04:08:49;5.20;;;2.05;;
80136;SDS011;69466;55.948;37.484;2024-02-04T04:11:16;4.90;;;2.20;;
80136;SDS011;69466;55.948;37.484;2024-02-04T04:13:41;4.90;;;2.10;;
80136;SDS011;69466;55.948;37.484;2024-02-04T04:16:09;5.32;;;2.42;;
80136;SDS011;69466;55.948;37.484;2024-02-04T04:18:35;4.78;;;2.20;;
80136;SDS011;69466;55.948;37.484;2024-02-04T04:21:02;8.10;;;2.20;;
80136;SDS011;69466;55.948;37.484;2024-02-04T04:23:28;3.67;;;1.63;;
80136;SDS011;69466;55.948;37.484;2024-02-04T04:25:54;3.88;;;1.83;;
80136;SDS011;69466;55.948;37.484;2024-02-04T04:28:20;3.47;;;1.58;;
80136;SDS011;69466;55.948;37.484;2024-02-04T04:30:46;3.53;;;1.42;;
80136;SDS011;69466;55.948;37.484;2024-02-04T04:33:12;3.70;;;1.42;;
80136;SDS011;69466;55.948;37.484;2024-02-04T04:35:38;3.95;;;1.50;;
80136;SDS011;69466;55.948;37.484;2024-02-04T04:38:04;4.32;;;1.70;;
80136;SDS011;69466;55.948;37.484;2024-02-04T04:40:30;4.53;;;1.27;;
80136;SDS011;69466;55.948;37.484;2024-02-04T04:42:57;6.47;;;1.50;;
80136;SDS011;69466;55.948;37.484;2024-02-04T04:45:23;3.22;;;1.30;;
80136;SDS011;69466;55.948;37.484;2024-02-04T04:51:32;3.92;;;1.10;;
80136;SDS011;69466;55.948;37.484;2024-02-04T04:54:00;3.25;;;1.00;;
80136;SDS011;69466;55.948;37.484;2024-02-04T04:56:26;3.10;;;1.00;;
80136;SDS011;69466;55.948;37.484;2024-02-04T04:58:54;2.83;;;0.90;;
80136;SDS011;69466;55.948;37.484;2024-02-04T05:01:20;1.98;;;0.73;;
80136;SDS011;69466;55.948;37.484;2024-02-04T05:03:47;2.00;;;0.70;;
80136;SDS011;69466;55.948;37.484;2024-02-04T05:06:14;2.75;;;1.00;;
80136;SDS011;69466;55.948;37.484;2024-02-04T05:08:40;1.73;;;0.60;;
80136;SDS011;69466;55.948;37.484;2024-02-04T05:11:06;2.22;;;0.80;;
80136;SDS011;69466;55.948;37.484;2024-02-04T05:13:32;2.03;;;0.80;;
80136;SDS011;69466;55.948;37.484;2024-02-04T05:15:58;2.70;;;0.90;;
80136;SDS011;69466;55.948;37.484;2024-02-04T05:18:24;2.55;;;1.20;;
80136;SDS011;69466;55.948;37.484;2024-02-04T05:20:53;2.05;;;0.70;;
80136;SDS011;69466;55.948;37.484;2024-02-04T05:23:19;2.42;;;0.80;;
80136;SDS011;69466;55.948;37.484;2024-02-04T05:25:45;2.15;;;0.70;;
80136;SDS011;69466;55.948;37.484;2024-02-04T05:28:11;2.05;;;0.68;;
80136;SDS011;69466;55.948;37.484;2024-02-04T05:30:37;3.13;;;0.68;;
80136;SDS011;69466;55.948;37.484;2024-02-04T05:33:03;1.83;;;0.60;;
80136;SDS011;69466;55.948;37.484;2024-02-04T05:35:30;3.03;;;0.70;;
80136;SDS011;69466;55.948;37.484;2024-02-04T05:37:56;3.13;;;0.80;;
80136;SDS011;69466;55.948;37.484;2024-02-04T05:40:22;1.95;;;0.70;;
80136;SDS011;69466;55.948;37.484;2024-02-04T05:42:48;1.70;;;0.65;;
80136;SDS011;69466;55.948;37.484;2024-02-04T05:45:14;1.90;;;0.70;;
80136;SDS011;69466;55.948;37.484;2024-02-04T05:47:40;2.75;;;0.95;;
80136;SDS011;69466;55.948;37.484;2024-02-04T05:50:06;2.55;;;0.80;;
80136;SDS011;69466;55.948;37.484;2024-02-04T05:52:32;2.88;;;0.70;;
80136;SDS011;69466;55.948;37.484;2024-02-04T05:54:58;2.53;;;0.80;;
80136;SDS011;69466;55.948;37.484;2024-02-04T05:57:24;2.85;;;0.88;;
80136;SDS011;69466;55.948;37.484;2024-02-04T05:59:53;2.60;;;1.25;;
80136;SDS011;69466;55.948;37.484;2024-02-04T06:02:21;1.90;;;0.80;;
80136;SDS011;69466;55.948;37.484;2024-02-04T06:04:48;1.60;;;0.50;;
80136;SDS011;69466;55.948;37.484;2024-02-04T06:07:14;1.25;;;0.60;;
80136;SDS011;69466;55.948;37.484;2024-02-04T06:09:40;1.15;;;0.50;;
80136;SDS011;69466;55.948;37.484;2024-02-04T06:12:07;2.97;;;0.98;;
80136;SDS011;69466;55.948;37.484;2024-02-04T06:14:33;1.85;;;1.00;;
80136;SDS011;69466;55.948;37.484;2024-02-04T06:17:05;2.70;;;1.13;;
80136;SDS011;69466;55.948;37.484;2024-02-04T06:19:34;2.00;;;0.70;;
80136;SDS011;69466;55.948;37.484;2024-02-04T06:22:00;1.63;;;0.60;;
80136;SDS011;69466;55.948;37.484;2024-02-04T06:24:27;2.03;;;0.60;;
80136;SDS011;69466;55.948;37.484;2024-02-04T06:26:53;3.50;;;0.60;;
80136;SDS011;69466;55.948;37.484;2024-02-04T06:29:18;1.65;;;0.65;;
80136;SDS011;69466;55.948;37.484;2024-02-04T06:31:44;2.17;;;0.57;;
80136;SDS011;69466;55.948;37.484;2024-02-04T06:34:11;1.45;;;0.50;;
80136;SDS011;69466;55.948;37.484;2024-02-04T06:36:38;2.15;;;0.52;;
80136;SDS011;69466;55.948;37.484;2024-02-04T06:39:07;0.80;;;0.30;;
80136;SDS011;69466;55.948;37.484;2024-02-04T06:41:34;0.63;;;0.30;;
80136;SDS011;69466;55.948;37.484;2024-02-04T06:44:05;1.17;;;0.40;;
80136;SDS011;69466;55.948;37.484;2024-02-04T06:46:32;1.67;;;0.70;;
80136;SDS011;69466;55.948;37.484;2024-02-04T06:49:08;1.52;;;0.40;;
80136;SDS011;69466;55.948;37.484;2024-02-04T06:51:34;1.35;;;0.50;;
80136;SDS011;69466;55.948;37.484;2024-02-04T06:54:00;2.75;;;0.82;;
80136;SDS011;69466;55.948;37.484;2024-02-04T06:56:26;1.67;;;0.68;;
80136;SDS011;69466;55.948;37.484;2024-02-04T06:58:52;1.45;;;0.50;;
80136;SDS011;69466;55.948;37.484;2024-02-04T07:01:18;2.30;;;0.70;;
80136;SDS011;69466;55.948;37.484;2024-02-04T07:03:44;2.92;;;0.70;;
80136;SDS011;69466;55.948;37.484;2024-02-04T07:06:10;2.20;;;0.60;;
80136;SDS011;69466;55.948;37.484;2024-02-04T07:08:36;0.98;;;0.40;;
80136;SDS011;69466;55.948;37.484;2024-02-04T07:11:02;2.20;;;0.45;;
80136;SDS011;69466;55.948;37.484;2024-02-04T07:13:29;1.25;;;0.60;;
80136;SDS011;69466;55.948;37.484;2024-02-04T07:15:55;1.73;;;0.50;;
80136;SDS011;69466;55.948;37.484;2024-02-04T07:18:21;5.25;;;0.60;;
80136;SDS011;69466;55.948;37.484;2024-02-04T07:20:48;1.50;;;0.45;;
80136;SDS011;69466;55.948;37.484;2024-02-04T07:23:15;0.93;;;0.32;;
80136;SDS011;69466;55.948;37.484;2024-02-04T07:25:41;1.73;;;0.60;;
80136;SDS011;69466;55.948;37.484;2024-02-04T07:28:07;1.67;;;0.70;;
80136;SDS011;69466;55.948;37.484;2024-02-04T07:30:33;1.00;;;0.40;;
80136;SDS011;69466;55.948;37.484;2024-02-04T07:40:19;2.05;;;0.70;;
80136;SDS011;69466;55.948;37.484;2024-02-04T07:42:45;1.15;;;0.38;;
80136;SDS011;69466;55.948;37.484;2024-02-04T07:45:11;2.28;;;1.02;;
80136;SDS011;69466;55.948;37.484;2024-02-04T07:47:37;2.22;;;0.82;;
80136;SDS011;69466;55.948;37.484;2024-02-04T07:50:03;2.13;;;0.90;;
80136;SDS011;69466;55.948;37.484;2024-02-04T07:52:30;1.52;;;0.50;;
80136;SDS011;69466;55.948;37.484;2024-02-04T07:54:56;1.67;;;0.55;;
80136;SDS011;69466;55.948;37.484;2024-02-04T07:57:22;2.15;;;0.60;;
80136;SDS011;69466;55.948;37.484;2024-02-04T07:59:48;2.58;;;0.70;;
80136;SDS011;69466;55.948;37.484;2024-02-04T08:02:14;1.30;;;0.60;;
80136;SDS011;69466;55.948;37.484;2024-02-04T08:04:40;2.50;;;0.68;;
80136;SDS011;69466;55.948;37.484;2024-02-04T08:07:07;1.40;;;0.50;;
80136;SDS011;69466;55.948;37.484;2024-02-04T08:09:34;1.88;;;0.60;;
80136;SDS011;69466;55.948;37.484;2024-02-04T08:12:01;1.33;;;0.50;;
80136;SDS011;69466;55.948;37.484;2024-02-04T08:14:27;1.58;;;0.63;;
80136;SDS011;69466;55.948;37.484;2024-02-04T08:16:53;1.73;;;0.75;;
80136;SDS011;69466;55.948;37.484;2024-02-04T08:19:19;2.78;;;1.35;;
80136;SDS011;69466;55.948;37.484;2024-02-04T08:21:45;2.13;;;0.70;;
80136;SDS011;69466;55.948;37.484;2024-02-04T08:24:11;2.95;;;0.60;;
80136;SDS011;69466;55.948;37.484;2024-02-04T08:26:38;2.28;;;0.50;;
80136;SDS011;69466;55.948;37.484;2024-02-04T08:29:03;1.33;;;0.40;;
80136;SDS011;69466;55.948;37.484;2024-02-04T08:31:31;1.90;;;0.73;;
80136;SDS011;69466;55.948;37.484;2024-02-04T08:33:59;1.00;;;0.50;;
80136;SDS011;69466;55.948;37.484;2024-02-04T08:36:26;4.22;;;0.85;;
80136;SDS011;69466;55.948;37.484;2024-02-04T08:38:53;3.13;;;0.80;;
80136;SDS011;69466;55.948;37.484;2024-02-04T08:41:19;1.80;;;0.55;;
80136;SDS011;69466;55.948;37.484;2024-02-04T08:43:47;4.18;;;1.60;;
80136;SDS011;69466;55.948;37.484;2024-02-04T08:46:14;3.13;;;1.00;;
80136;SDS011;69466;55.948;37.484;2024-02-04T08:48:41;3.17;;;0.90;;
80136;SDS011;69466;55.948;37.484;2024-02-04T08:51:11;3.08;;;1.25;;
80136;SDS011;69466;55.948;37.484;2024-02-04T08:53:38;5.22;;;1.00;;
80136;SDS011;69466;55.948;37.484;2024-02-04T08:56:06;5.88;;;1.75;;
80136;SDS011;69466;55.948;37.484;2024-02-04T08:58:32;6.47;;;1.35;;
80136;SDS011;69466;55.948;37.484;2024-02-04T09:00:59;4.68;;;1.00;;
80136;SDS011;69466;55.948;37.484;2024-02-04T09:03:25;6.43;;;2.78;;
80136;SDS011;69466;55.948;37.484;2024-02-04T09:05:51;5.10;;;1.70;;
80136;SDS011;69466;55.948;37.484;2024-02-04T09:08:18;10.43;;;2.40;;
80136;SDS011;69466;55.948;37.484;2024-02-04T09:10:44;3.85;;;1.63;;
80136;SDS011;69466;55.948;37.484;2024-02-04T09:13:10;7.50;;;1.40;;
80136;SDS011;69466;55.948;37.484;2024-02-04T09:15:40;4.28;;;1.67;;
80136;SDS011;69466;55.948;37.484;2024-02-04T09:18:07;4.93;;;1.80;;
80136;SDS011;69466;55.948;37.484;2024-02-04T09:20:33;5.72;;;1.67;;
80136;SDS011;69466;55.948;37.484;2024-02-04T09:23:03;4.18;;;1.27;;
80136;SDS011;69466;55.948;37.484;2024-02-04T09:25:30;5.72;;;1.55;;
80136;SDS011;69466;55.948;37.484;2024-02-04T09:27:56;5.80;;;2.08;;
80136;SDS011;69466;55.948;37.484;2024-02-04T09:30:28;4.28;;;1.65;;
80136;SDS011;69466;55.948;37.484;2024-02-04T09:32:55;11.10;;;3.03;;
80136;SDS011;69466;55.948;37.484;2024-02-04T09:35:23;7.30;;;2.45;;
80136;SDS011;69466;55.948;37.484;2024-02-04T09:37:50;8.43;;;1.40;;
80136;SDS011;69466;55.948;37.484;2024-02-04T09:40:16;8.02;;;1.80;;
80136;SDS011;69466;55.948;37.484;2024-02-04T09:46:35;6.32;;;2.05;;
80136;SDS011;69466;55.948;37.484;2024-02-04T09:49:10;4.45;;;1.45;;
80136;SDS011;69466;55.948;37.484;2024-02-04T09:51:46;7.60;;;1.55;;
80136;SDS011;69466;55.948;37.484;2024-02-04T09:54:13;7.72;;;3.28;;
80136;SDS011;69466;55.948;37.484;2024-02-04T09:56:50;5.32;;;1.40;;
80136;SDS011;69466;55.948;37.484;2024-02-04T09:59:18;4.63;;;1.40;;
80136;SDS011;69466;55.948;37.484;2024-02-04T10:01:45;5.70;;;1.77;;
80136;SDS011;69466;55.948;37.484;2024-02-04T10:04:13;4.85;;;1.38;;
80136;SDS011;69466;55.948;37.484;2024-02-04T10:06:39;6.00;;;1.83;;
80136;SDS011;69466;55.948;37.484;2024-02-04T10:15:29;9.40;;;2.70;;
80136;SDS011;69466;55.948;37.484;2024-02-04T10:24:09;6.60;;;2.03;;
80136;SDS011;69466;55.948;37.484;2024-02-04T10:26:42;7.05;;;1.83;;
80136;SDS011;69466;55.948;37.484;2024-02-04T10:36:05;7.80;;;2.45;;
80136;SDS011;69466;55.948;37.484;2024-02-04T10:38:44;11.27;;;2.80;;
80136;SDS011;69466;55.948;37.484;2024-02-04T10:44:49;6.47;;;1.85;;
80136;SDS011;69466;55.948;37.484;2024-02-04T10:51:49;7.68;;;1.73;;
80136;SDS011;69466;55.948;37.484;2024-02-04T10:54:19;6.32;;;1.70;;
80136;SDS011;69466;55.948;37.484;2024-02-04T10:56:52;7.32;;;2.20;;
80136;SDS011;69466;55.948;37.484;2024-02-04T10:59:22;6.38;;;1.92;;
80136;SDS011;69466;55.948;37.484;2024-02-04T11:01:51;6.85;;;1.70;;
80136;SDS011;69466;55.948;37.484;2024-02-04T11:04:17;8.02;;;2.65;;
80136;SDS011;69466;55.948;37.484;2024-02-04T11:06:44;6.82;;;1.65;;
80136;SDS011;69466;55.948;37.484;2024-02-04T11:09:13;7.13;;;1.55;;
80136;SDS011;69466;55.948;37.484;2024-02-04T11:11:40;6.20;;;1.50;;
80136;SDS011;69466;55.948;37.484;2024-02-04T11:14:11;5.45;;;1.35;;
80136;SDS011;69466;55.948;37.484;2024-02-04T11:22:29;6.03;;;1.83;;
80136;SDS011;69466;55.948;37.484;2024-02-04T11:28:07;6.78;;;1.42;;
80136;SDS011;69466;55.948;37.484;2024-02-04T11:30:34;7.03;;;1.58;;
80136;SDS011;69466;55.948;37.484;2024-02-04T11:33:05;6.57;;;1.92;;
80136;SDS011;69466;55.948;37.484;2024-02-04T11:35:32;10.50;;;2.45;;
80136;SDS011;69466;55.948;37.484;2024-02-04T11:37:59;6.15;;;1.42;;
80136;SDS011;69466;55.948;37.484;2024-02-04T11:40:36;5.82;;;1.45;;
80136;SDS011;69466;55.948;37.484;2024-02-04T11:43:14;6.65;;;1.70;;
80136;SDS011;69466;55.948;37.484;2024-02-04T11:45:43;5.32;;;1.23;;
80136;SDS011;69466;55.948;37.484;2024-02-04T11:48:10;7.10;;;1.35;;
80136;SDS011;69466;55.948;37.484;2024-02-04T11:50:37;3.97;;;1.63;;
80136;SDS011;69466;55.948;37.484;2024-02-04T11:53:09;4.25;;;1.23;;
80136;SDS011;69466;55.948;37.484;2024-02-04T11:55:38;4.38;;;1.90;;
80136;SDS011;69466;55.948;37.484;2024-02-04T11:58:06;7.03;;;1.70;;
80136;SDS011;69466;55.948;37.484;2024-02-04T12:00:33;5.05;;;1.40;;
80136;SDS011;69466;55.948;37.484;2024-02-04T12:03:05;5.60;;;2.05;;
80136;SDS011;69466;55.948;37.484;2024-02-04T12:05:33;6.65;;;2.25;;
80136;SDS011;69466;55.948;37.484;2024-02-04T12:08:06;3.90;;;1.05;;
80136;SDS011;69466;55.948;37.484;2024-02-04T12:10:36;6.85;;;1.80;;
80136;SDS011;69466;55.948;37.484;2024-02-04T12:13:04;3.72;;;1.13;;
80136;SDS011;69466;55.948;37.484;2024-02-04T12:15:37;4.95;;;1.20;;
80136;SDS011;69466;55.948;37.484;2024-02-04T12:18:10;2.78;;;0.90;;
80136;SDS011;69466;55.948;37.484;2024-02-04T12:20:42;5.75;;;1.35;;
80136;SDS011;69466;55.948;37.484;2024-02-04T12:23:09;4.10;;;1.02;;
80136;SDS011;69466;55.948;37.484;2024-02-04T12:25:36;7.25;;;2.65;;
80136;SDS011;69466;55.948;37.484;2024-02-04T12:28:02;4.78;;;1.50;;
80136;SDS011;69466;55.948;37.484;2024-02-04T12:30:30;4.90;;;1.08;;
80136;SDS011;69466;55.948;37.484;2024-02-04T12:33:01;4.15;;;1.05;;
80136;SDS011;69466;55.948;37.484;2024-02-04T12:35:32;6.55;;;2.05;;
80136;SDS011;69466;55.948;37.484;2024-02-04T12:37:59;4.20;;;2.30;;
80136;SDS011;69466;55.948;37.484;2024-02-04T12:40:26;6.68;;;0.93;;
80136;SDS011;69466;55.948;37.484;2024-02-04T12:42:57;5.03;;;1.05;;
80136;SDS011;69466;55.948;37.484;2024-02-04T12:45:24;3.78;;;1.00;;
80136;SDS011;69466;55.948;37.484;2024-02-04T12:47:52;6.30;;;1.35;;
80136;SDS011;69466;55.948;37.484;2024-02-04T12:50:19;8.50;;;1.60;;
80136;SDS011;69466;55.948;37.484;2024-02-04T12:52:47;4.38;;;0.77;;
80136;SDS011;69466;55.948;37.484;2024-02-04T12:55:22;5.03;;;1.25;;
80136;SDS011;69466;55.948;37.484;2024-02-04T12:58:00;5.13;;;1.10;;
80136;SDS011;69466;55.948;37.484;2024-02-04T13:04:06;5.78;;;0.90;;
80136;SDS011;69466;55.948;37.484;2024-02-04T13:09:05;4.72;;;1.33;;
80136;SDS011;69466;55.948;37.484;2024-02-04T13:11:34;4.07;;;1.50;;
80136;SDS011;69466;55.948;37.484;2024-02-04T13:14:00;5.38;;;0.93;;
80136;SDS011;69466;55.948;37.484;2024-02-04T13:16:26;6.78;;;0.95;;
80136;SDS011;69466;55.948;37.484;2024-02-04T13:18:54;5.25;;;1.10;;
80136;SDS011;69466;55.948;37.484;2024-02-04T13:21:20;6.57;;;1.60;;
80136;SDS011;69466;55.948;37.484;2024-02-04T13:23:50;4.68;;;1.92;;
80136;SDS011;69466;55.948;37.484;2024-02-04T13:26:18;8.52;;;2.30;;
80136;SDS011;69466;55.948;37.484;2024-02-04T13:28:44;6.63;;;2.35;;
80136;SDS011;69466;55.948;37.484;2024-02-04T13:31:16;6.63;;;2.35;;
80136;SDS011;69466;55.948;37.484;2024-02-04T13:33:42;6.20;;;2.00;;
80136;SDS011;69466;55.948;37.484;2024-02-04T13:36:09;3.90;;;1.10;;
80136;SDS011;69466;55.948;37.484;2024-02-04T13:38:36;5.93;;;2.67;;
80136;SDS011;69466;55.948;37.484;2024-02-04T13:41:03;7.00;;;1.52;;
80136;SDS011;69466;55.948;37.484;2024-02-04T13:43:32;3.33;;;1.13;;
80136;SDS011;69466;55.948;37.484;2024-02-04T13:45:59;4.60;;;1.45;;
80136;SDS011;69466;55.948;37.484;2024-02-04T13:48:30;5.75;;;1.27;;
80136;SDS011;69466;55.948;37.484;2024-02-04T13:50:55;7.93;;;1.60;;
80136;SDS011;69466;55.948;37.484;2024-02-04T13:53:24;5.50;;;1.73;;
80136;SDS011;69466;55.948;37.484;2024-02-04T13:55:51;9.02;;;1.77;;
80136;SDS011;69466;55.948;37.484;2024-02-04T13:58:19;6.20;;;1.83;;
80136;SDS011;69466;55.948;37.484;2024-02-04T14:00:46;8.55;;;2.47;;
80136;SDS011;69466;55.948;37.484;2024-02-04T14:03:13;7.97;;;2.63;;
80136;SDS011;69466;55.948;37.484;2024-02-04T14:05:39;5.07;;;1.85;;
80136;SDS011;69466;55.948;37.484;2024-02-04T14:08:06;8.32;;;2.25;;
80136;SDS011;69466;55.948;37.484;2024-02-04T14:10:37;10.73;;;2.58;;
80136;SDS011;69466;55.948;37.484;2024-02-04T14:13:13;9.95;;;3.35;;
80136;SDS011;69466;55.948;37.484;2024-02-04T14:15:39;7.93;;;3.50;;
80136;SDS011;69466;55.948;37.484;2024-02-04T14:18:05;7.45;;;3.00;;
80136;SDS011;69466;55.948;37.484;2024-02-04T14:20:32;11.98;;;3.20;;
80136;SDS011;69466;55.948;37.484;2024-02-04T14:23:05;7.72;;;2.70;;
80136;SDS011;69466;55.948;37.484;2024-02-04T14:25:31;9.18;;;3.47;;
80136;SDS011;69466;55.948;37.484;2024-02-04T14:28:00;7.85;;;2.88;;
80136;SDS011;69466;55.948;37.484;2024-02-04T14:30:26;8.00;;;2.65;;
80136;SDS011;69466;55.948;37.484;2024-02-04T14:32:52;6.88;;;2.08;;
80136;SDS011;69466;55.948;37.484;2024-02-04T14:35:19;5.13;;;2.15;;
80136;SDS011;69466;55.948;37.484;2024-02-04T14:37:53;5.72;;;2.10;;
80136;SDS011;69466;55.948;37.484;2024-02-04T14:43:25;5.38;;;2.75;;
80136;SDS011;69466;55.948;37.484;2024-02-04T14:45:53;5.97;;;2.72;;
80136;SDS011;69466;55.948;37.484;2024-02-04T14:48:19;8.45;;;2.65;;
80136;SDS011;69466;55.948;37.484;2024-02-04T14:50:46;5.10;;;2.08;;
80136;SDS011;69466;55.948;37.484;2024-02-04T14:53:16;7.35;;;3.38;;
80136;SDS011;69466;55.948;37.484;2024-02-04T14:55:52;6.30;;;2.33;;
80136;SDS011;69466;55.948;37.484;2024-02-04T14:58:18;5.47;;;2.65;;
80136;SDS011;69466;55.948;37.484;2024-02-04T15:00:50;7.05;;;2.20;;
80136;SDS011;69466;55.948;37.484;2024-02-04T15:03:16;6.80;;;2.17;;
80136;SDS011;69466;55.948;37.484;2024-02-04T15:05:45;5.43;;;2.05;;
80136;SDS011;69466;55.948;37.484;2024-02-04T15:08:13;6.93;;;3.10;;
80136;SDS011;69466;55.948;37.484;2024-02-04T15:10:40;6.32;;;2.40;;
80136;SDS011;69466;55.948;37.484;2024-02-04T15:13:06;5.80;;;1.75;;
80136;SDS011;69466;55.948;37.484;2024-02-04T15:15:32;7.07;;;2.40;;
80136;SDS011;69466;55.948;37.484;2024-02-04T15:18:04;6.28;;;1.67;;
80136;SDS011;69466;55.948;37.484;2024-02-04T15:20:42;5.00;;;1.80;;
80136;SDS011;69466;55.948;37.484;2024-02-04T15:23:11;4.55;;;1.55;;
80136;SDS011;69466;55.948;37.484;2024-02-04T15:25:38;7.70;;;2.50;;
80136;SDS011;69466;55.948;37.484;2024-02-04T15:28:07;5.32;;;2.17;;
80136;SDS011;69466;55.948;37.484;2024-02-04T15:30:46;10.98;;;2.17;;
80136;SDS011;69466;55.948;37.484;2024-02-04T15:33:14;9.23;;;1.50;;
80136;SDS011;69466;55.948;37.484;2024-02-04T15:35:40;6.63;;;2.33;;
80136;SDS011;69466;55.948;37.484;2024-02-04T15:38:09;4.90;;;2.20;;